createdAt,value
2023-04-06T00:00:24.913Z,81.45
2023-04-06T00:01:21.611Z,81.40
2023-04-06T00:02:18.333Z,81.14
2023-04-06T00:03:15.600Z,81.50
2023-04-06T00:04:12.420Z,82.07
2023-04-06T00:05:09.484Z,81.63
2023-04-06T00:06:06.551Z,81.17
2023-04-06T00:07:03.166Z,81.22
2023-04-06T00:07:59.856Z,81.39
2023-04-06T00:08:57.105Z,81.13
2023-04-06T00:09:53.690Z,81.38
2023-04-06T00:10:50.419Z,81.84
2023-04-06T00:11:47.061Z,81.39
2023-04-06T00:12:44.256Z,81.25
2023-04-06T00:13:40.929Z,81.58
2023-04-06T00:14:37.533Z,81.39
2023-04-06T00:15:34.837Z,81.20
2023-04-06T00:16:31.500Z,81.02
2023-04-06T00:17:29.079Z,80.92
2023-04-06T00:18:25.793Z,80.54
2023-04-06T00:19:22.483Z,80.79
2023-04-06T00:20:19.823Z,81.44
2023-04-06T00:21:16.563Z,82.07
2023-04-06T00:22:13.256Z,82.38
2023-04-06T00:23:09.872Z,81.67
2023-04-06T00:24:06.745Z,82.12
2023-04-06T00:25:03.544Z,82.18
2023-04-06T00:26:00.427Z,82.21
2023-04-06T00:26:57.160Z,82.54
2023-04-06T00:27:53.795Z,82.31
2023-04-06T00:28:51.682Z,82.64
2023-04-06T00:29:48.310Z,82.74
2023-04-06T00:30:44.961Z,82.69
2023-04-06T00:31:41.696Z,82.80
2023-04-06T00:32:38.538Z,82.22
2023-04-06T00:33:35.152Z,81.86
2023-04-06T00:34:31.849Z,81.51
2023-04-06T00:35:28.433Z,81.76
2023-04-06T00:36:25.096Z,82.31
2023-04-06T00:37:21.722Z,82.34
2023-04-06T00:38:18.872Z,81.75
2023-04-06T00:39:15.473Z,82.27
2023-04-06T00:40:12.147Z,82.11
2023-04-06T00:41:08.851Z,82.21
2023-04-06T00:42:13.534Z,82.41
2023-04-06T00:43:10.438Z,82.08
2023-04-06T00:44:07.182Z,82.04
2023-04-06T00:45:04.212Z,81.58
2023-04-06T00:46:00.972Z,81.28
2023-04-06T00:46:57.702Z,81.67
2023-04-06T00:47:54.464Z,82.28
2023-04-06T00:48:51.371Z,82.79
2023-04-06T00:49:48.266Z,82.67
2023-04-06T00:50:44.996Z,82.32
2023-04-06T00:51:41.634Z,82.66
2023-04-06T00:52:38.542Z,82.62
2023-04-06T00:53:35.288Z,82.25
2023-04-06T00:54:31.946Z,82.34
2023-04-06T00:55:29.629Z,82.56
2023-04-06T00:56:27.277Z,82.69
2023-04-06T00:57:24.014Z,82.46
2023-04-06T00:58:20.672Z,82.89
2023-04-06T00:59:17.529Z,82.93
2023-04-06T01:00:14.956Z,82.91
2023-04-06T01:01:11.830Z,82.11
2023-04-06T01:02:09.369Z,81.60
2023-04-06T01:03:07.882Z,81.70
2023-04-06T01:04:04.786Z,82.31
2023-04-06T01:05:01.502Z,82.34
2023-04-06T01:05:59.373Z,82.48
2023-04-06T01:06:56.205Z,82.80
2023-04-06T01:07:52.880Z,82.76
2023-04-06T01:08:49.598Z,82.83
2023-04-06T01:09:46.266Z,82.35
2023-04-06T01:10:42.880Z,83.00
2023-04-06T01:11:39.556Z,82.50
2023-04-06T01:12:37.348Z,82.31
2023-04-06T01:13:34.059Z,82.18
2023-04-06T01:14:30.964Z,82.47
2023-04-06T01:15:28.338Z,81.97
2023-04-06T01:16:25.482Z,81.94
2023-04-06T01:17:22.849Z,82.50
2023-04-06T01:18:19.490Z,82.30
2023-04-06T01:19:16.195Z,82.50
2023-04-06T01:20:12.867Z,82.80
2023-04-06T01:21:11.276Z,82.47
2023-04-06T01:22:08.306Z,82.86
2023-04-06T01:23:04.937Z,83.39
2023-04-06T01:24:01.562Z,83.74
2023-04-06T01:24:58.294Z,83.44
2023-04-06T01:25:54.927Z,83.70
2023-04-06T01:26:51.571Z,83.14
2023-04-06T01:27:48.247Z,82.67
2023-04-06T01:28:45.714Z,82.56
2023-04-06T01:29:42.576Z,83.12
2023-04-06T01:30:39.217Z,82.87
2023-04-06T01:31:36.387Z,82.62
2023-04-06T01:32:33.029Z,82.79
2023-04-06T01:33:29.683Z,82.64
2023-04-06T01:34:26.380Z,82.44
2023-04-06T01:35:23.476Z,82.35
2023-04-06T01:36:20.746Z,81.96
2023-04-06T01:37:17.469Z,82.11
2023-04-06T01:38:14.146Z,82.13
2023-04-06T01:39:10.935Z,82.86
2023-04-06T01:40:08.292Z,82.69
2023-04-06T01:41:04.956Z,82.94
2023-04-06T01:42:01.575Z,83.27
2023-04-06T01:42:58.198Z,83.48
2023-04-06T01:43:55.683Z,83.59
2023-04-06T01:44:52.393Z,83.80
2023-04-06T01:45:48.983Z,83.70
2023-04-06T01:46:46.505Z,83.80
2023-04-06T01:47:43.222Z,83.57
2023-04-06T01:48:39.876Z,83.52
2023-04-06T01:49:36.820Z,83.94
2023-04-06T01:50:33.457Z,84.16
2023-04-06T01:51:30.115Z,84.54
2023-04-06T01:52:26.733Z,84.16
2023-04-06T01:53:23.434Z,84.09
2023-04-06T01:54:20.034Z,83.48
2023-04-06T01:55:16.945Z,83.93
2023-04-06T01:56:13.614Z,84.33
2023-04-06T01:57:11.869Z,84.60
2023-04-06T01:58:08.494Z,84.65
2023-04-06T01:59:05.358Z,84.65
2023-04-06T02:00:02.104Z,84.97
2023-04-06T02:00:58.756Z,84.72
2023-04-06T02:01:55.443Z,84.78
2023-04-06T02:02:52.255Z,84.96
2023-04-06T02:03:49.057Z,85.18
2023-04-06T02:04:45.902Z,84.83
2023-04-06T02:05:42.591Z,84.26
2023-04-06T02:06:39.232Z,84.42
2023-04-06T02:07:35.923Z,84.86
2023-04-06T02:08:32.554Z,84.31
2023-04-06T02:09:30.633Z,84.31
2023-04-06T02:10:27.400Z,85.00
2023-04-06T02:11:24.028Z,84.61
2023-04-06T02:12:20.873Z,84.49
2023-04-06T02:13:17.597Z,85.10
2023-04-06T02:14:14.196Z,85.11
2023-04-06T02:15:11.245Z,85.13
2023-04-06T02:16:08.029Z,85.01
2023-04-06T02:17:04.741Z,85.14
2023-04-06T02:18:01.811Z,85.31
2023-04-06T02:18:58.490Z,85.29
2023-04-06T02:19:55.059Z,85.13
2023-04-06T02:20:52.047Z,85.16
2023-04-06T02:21:48.597Z,85.40
2023-04-06T02:22:45.644Z,85.55
2023-04-06T02:23:42.258Z,85.63
2023-04-06T02:24:38.888Z,85.75
2023-04-06T02:25:35.894Z,85.55
2023-04-06T02:26:33.684Z,85.53
2023-04-06T02:27:30.284Z,85.72
2023-04-06T02:28:26.915Z,86.05
2023-04-06T02:29:23.526Z,85.92
2023-04-06T02:30:20.393Z,85.64
2023-04-06T02:31:17.167Z,85.44
2023-04-06T02:32:13.742Z,85.44
2023-04-06T02:33:10.391Z,85.51
2023-04-06T02:34:08.203Z,85.61
2023-04-06T02:35:05.140Z,85.59
2023-04-06T02:36:01.841Z,85.66
2023-04-06T02:36:58.534Z,85.39
2023-04-06T02:37:55.383Z,85.71
2023-04-06T02:38:52.814Z,85.16
2023-04-06T02:39:49.406Z,85.35
2023-04-06T02:40:46.099Z,85.43
2023-04-06T02:41:42.697Z,85.34
2023-04-06T02:42:39.360Z,85.73
2023-04-06T02:43:36.083Z,86.17
2023-04-06T02:44:32.712Z,86.07
2023-04-06T02:45:29.366Z,86.13
2023-04-06T02:46:26.613Z,86.30
2023-04-06T02:47:23.286Z,86.37
2023-04-06T02:48:19.958Z,86.05
2023-04-06T02:49:16.805Z,86.15
2023-04-06T02:50:13.493Z,85.50
2023-04-06T02:51:10.285Z,85.32
2023-04-06T02:52:06.914Z,85.63
2023-04-06T02:53:03.530Z,85.96
2023-04-06T02:54:00.508Z,85.96
2023-04-06T02:54:57.118Z,86.30
2023-04-06T02:55:53.673Z,86.38
2023-04-06T02:56:50.437Z,86.38
2023-04-06T02:57:47.067Z,85.84
2023-04-06T02:58:43.807Z,85.58
2023-04-06T02:59:40.558Z,85.64
2023-04-06T03:00:38.675Z,86.25
2023-04-06T03:01:35.482Z,86.27
2023-04-06T03:02:32.254Z,86.63
2023-04-06T03:03:29.062Z,86.92
2023-04-06T03:04:26.588Z,86.63
2023-04-06T03:05:23.161Z,86.43
2023-04-06T03:06:19.780Z,86.72
2023-04-06T03:07:16.521Z,86.61
2023-04-06T03:08:13.114Z,86.46
2023-04-06T03:09:10.007Z,86.27
2023-04-06T03:10:07.105Z,86.33
2023-04-06T03:11:03.812Z,86.48
2023-04-06T03:12:01.008Z,86.39
2023-04-06T03:12:57.630Z,86.41
2023-04-06T03:13:54.287Z,86.39
2023-04-06T03:14:50.968Z,86.64
2023-04-06T03:15:47.636Z,86.50
2023-04-06T03:16:44.728Z,86.34
2023-04-06T03:17:41.422Z,86.46
2023-04-06T03:18:38.790Z,86.20
2023-04-06T03:19:35.477Z,85.96
2023-04-06T03:20:32.050Z,85.60
2023-04-06T03:21:31.641Z,85.78
2023-04-06T03:22:29.725Z,86.07
2023-04-06T03:23:26.392Z,86.16
2023-04-06T03:24:23.064Z,86.24
2023-04-06T03:25:19.661Z,86.15
2023-04-06T03:26:16.233Z,86.22
2023-04-06T03:27:13.019Z,86.45
2023-04-06T03:28:09.698Z,86.51
2023-04-06T03:29:06.528Z,85.91
2023-04-06T03:30:03.763Z,85.97
2023-04-06T03:31:00.716Z,86.25
2023-04-06T03:31:57.425Z,86.53
2023-04-06T03:32:54.140Z,86.75
2023-04-06T03:33:50.875Z,86.62
2023-04-06T03:34:47.415Z,86.79
2023-04-06T03:35:44.104Z,86.87
2023-04-06T03:36:40.824Z,86.95
2023-04-06T03:37:37.490Z,86.91
2023-04-06T03:38:34.091Z,86.48
2023-04-06T03:39:31.103Z,86.58
2023-04-06T03:40:27.741Z,86.53
2023-04-06T03:41:24.352Z,86.36
2023-04-06T03:42:21.000Z,86.44
2023-04-06T03:43:17.641Z,86.37
2023-04-06T03:44:14.263Z,86.23
2023-04-06T03:45:11.254Z,86.76
2023-04-06T03:46:07.927Z,86.84
2023-04-06T03:47:04.769Z,86.77
2023-04-06T03:48:01.466Z,86.36
2023-04-06T03:48:58.440Z,86.25
2023-04-06T03:49:55.207Z,86.33
2023-04-06T03:50:51.787Z,86.39
2023-04-06T03:51:48.638Z,86.70
2023-04-06T03:52:45.300Z,86.71
2023-04-06T03:53:41.864Z,86.65
2023-04-06T03:54:38.619Z,86.09
2023-04-06T03:55:35.423Z,86.35
2023-04-06T03:56:32.174Z,85.55
2023-04-06T03:57:28.773Z,85.55
2023-04-06T03:58:25.365Z,86.05
2023-04-06T03:59:22.157Z,85.89
2023-04-06T04:00:18.973Z,86.06
2023-04-06T04:01:16.081Z,86.18
2023-04-06T04:02:12.798Z,85.93
2023-04-06T04:03:09.516Z,85.99
2023-04-06T04:04:06.452Z,86.15
2023-04-06T04:05:03.501Z,86.49
2023-04-06T04:06:00.315Z,86.20
2023-04-06T04:06:56.930Z,86.10
2023-04-06T04:07:53.717Z,86.64
2023-04-06T04:08:50.738Z,86.48
2023-04-06T04:09:47.347Z,86.33
2023-04-06T04:10:43.945Z,86.50
2023-04-06T04:11:40.850Z,86.92
2023-04-06T04:12:37.536Z,86.70
2023-04-06T04:13:34.156Z,86.57
2023-04-06T04:14:30.889Z,86.42
2023-04-06T04:15:27.689Z,85.98
2023-04-06T04:16:24.409Z,86.13
2023-04-06T04:17:22.933Z,86.37
2023-04-06T04:18:19.999Z,86.72
2023-04-06T04:19:16.650Z,86.77
2023-04-06T04:20:14.344Z,86.95
2023-04-06T04:21:11.127Z,87.17
2023-04-06T04:22:07.793Z,87.01
2023-04-06T04:23:04.456Z,87.17
2023-04-06T04:24:01.155Z,86.69
2023-04-06T04:24:57.739Z,86.61
2023-04-06T04:25:54.397Z,86.52
2023-04-06T04:26:51.076Z,85.86
2023-04-06T04:27:47.670Z,86.13
2023-04-06T04:28:44.322Z,86.78
2023-04-06T04:29:41.121Z,86.85
2023-04-06T04:30:37.742Z,87.13
2023-04-06T04:31:34.422Z,86.63
2023-04-06T04:32:31.553Z,86.47
2023-04-06T04:33:28.253Z,86.54
2023-04-06T04:34:26.250Z,86.53
2023-04-06T04:35:22.928Z,85.67
2023-04-06T04:36:19.646Z,86.19
2023-04-06T04:37:16.306Z,86.30
2023-04-06T04:38:12.904Z,86.46
2023-04-06T04:39:09.809Z,86.27
2023-04-06T04:40:07.412Z,86.25
2023-04-06T04:41:03.990Z,86.05
2023-04-06T04:42:00.755Z,85.81
2023-04-06T04:42:57.386Z,86.15
2023-04-06T04:43:53.973Z,86.59
2023-04-06T04:44:50.618Z,86.70
2023-04-06T04:45:47.285Z,86.50
2023-04-06T04:46:43.941Z,86.92
2023-04-06T04:47:40.719Z,86.65
2023-04-06T04:48:37.573Z,86.72
2023-04-06T04:49:34.190Z,86.76
2023-04-06T04:50:30.897Z,86.58
2023-04-06T04:51:29.569Z,86.28
2023-04-06T04:52:26.259Z,85.64
2023-04-06T04:53:25.077Z,85.76
2023-04-06T04:54:22.007Z,86.16
2023-04-06T04:55:18.892Z,86.02
2023-04-06T04:56:15.920Z,85.86
2023-04-06T04:57:12.530Z,85.51
2023-04-06T04:58:12.119Z,85.46
2023-04-06T04:59:08.916Z,85.48
2023-04-06T05:00:06.788Z,85.41
2023-04-06T05:01:03.463Z,85.41
2023-04-06T05:02:00.335Z,84.89
2023-04-06T05:02:57.127Z,84.40
2023-04-06T05:03:53.952Z,84.63
2023-04-06T05:04:50.685Z,84.90
2023-04-06T05:05:47.285Z,85.21
2023-04-06T05:06:43.945Z,84.86
2023-04-06T05:07:40.652Z,85.15
2023-04-06T05:08:37.243Z,84.81
2023-04-06T05:09:33.937Z,85.10
2023-04-06T05:10:30.570Z,84.90
2023-04-06T05:11:27.474Z,85.04
2023-04-06T05:12:24.118Z,85.21
2023-04-06T05:13:21.286Z,84.57
2023-04-06T05:14:18.375Z,84.70
2023-04-06T05:15:15.202Z,84.79
2023-04-06T05:16:12.218Z,84.77
2023-04-06T05:17:09.353Z,84.91
2023-04-06T05:18:07.052Z,84.79
2023-04-06T05:19:03.794Z,84.43
2023-04-06T05:20:00.508Z,83.75
2023-04-06T05:20:57.144Z,84.70
2023-04-06T05:21:53.924Z,84.40
2023-04-06T05:22:50.562Z,83.75
2023-04-06T05:23:47.174Z,83.96
2023-04-06T05:24:44.232Z,83.86
2023-04-06T05:25:41.742Z,83.88
2023-04-06T05:26:38.492Z,83.96
2023-04-06T05:27:35.674Z,83.75
2023-04-06T05:28:33.045Z,83.64
2023-04-06T05:29:30.645Z,84.14
2023-04-06T05:30:27.306Z,83.93
2023-04-06T05:31:23.949Z,83.83
2023-04-06T05:32:23.154Z,83.96
2023-04-06T05:33:20.030Z,84.14
2023-04-06T05:34:16.857Z,84.19
2023-04-06T05:35:13.618Z,84.43
2023-04-06T05:36:11.635Z,84.52
2023-04-06T05:37:09.697Z,83.84
2023-04-06T05:38:10.665Z,83.93
2023-04-06T05:39:08.243Z,84.05
2023-04-06T05:40:05.704Z,84.11
2023-04-06T05:41:02.302Z,84.04
2023-04-06T05:41:58.845Z,83.92
2023-04-06T05:42:55.435Z,83.73
2023-04-06T05:43:52.050Z,83.25
2023-04-06T05:44:48.686Z,82.92
2023-04-06T05:45:46.757Z,83.49
2023-04-06T05:46:43.346Z,83.93
2023-04-06T05:47:40.057Z,83.11
2023-04-06T05:48:37.021Z,82.91
2023-04-06T05:49:33.920Z,83.17
2023-04-06T05:50:30.580Z,82.96
2023-04-06T05:51:28.298Z,81.83
2023-04-06T05:52:25.241Z,80.96
2023-04-06T05:53:27.339Z,82.21
2023-04-06T05:54:24.138Z,82.69
2023-04-06T05:55:20.804Z,82.23
2023-04-06T05:56:17.706Z,82.20
2023-04-06T05:57:14.340Z,81.79
2023-04-06T05:58:11.205Z,81.82
2023-04-06T05:59:08.421Z,82.24
2023-04-06T06:00:07.823Z,81.24
2023-04-06T06:01:05.793Z,81.39
2023-04-06T06:02:02.613Z,81.74
2023-04-06T06:02:59.325Z,81.17
2023-04-06T06:03:56.001Z,81.39
2023-04-06T06:04:52.752Z,81.07
2023-04-06T06:05:49.444Z,80.37
2023-04-06T06:06:46.108Z,80.72
2023-04-06T06:07:42.777Z,80.71
2023-04-06T06:08:39.450Z,80.04
2023-04-06T06:09:36.147Z,79.98
2023-04-06T06:10:32.819Z,79.94
2023-04-06T06:11:29.456Z,80.21
2023-04-06T06:12:26.132Z,80.51
2023-04-06T06:13:23.555Z,81.20
2023-04-06T06:14:21.048Z,80.88
2023-04-06T06:15:17.779Z,80.30
2023-04-06T06:16:14.410Z,80.48
2023-04-06T06:17:11.125Z,80.65
2023-04-06T06:18:07.826Z,80.67
2023-04-06T06:19:04.564Z,80.53
2023-04-06T06:20:01.260Z,79.81
2023-04-06T06:20:57.877Z,79.88
2023-04-06T06:21:54.538Z,79.36
2023-04-06T06:22:51.216Z,79.09
2023-04-06T06:23:49.556Z,79.10
2023-04-06T06:24:46.259Z,79.02
2023-04-06T06:25:42.823Z,78.50
2023-04-06T06:26:40.511Z,79.50
2023-04-06T06:27:37.595Z,79.04
2023-04-06T06:28:34.358Z,78.42
2023-04-06T06:29:31.089Z,79.14
2023-04-06T06:30:28.926Z,78.86
2023-04-06T06:31:25.765Z,78.60
2023-04-06T06:32:22.569Z,77.67
2023-04-06T06:33:19.353Z,77.67
2023-04-06T06:34:16.014Z,77.72
2023-04-06T06:35:12.626Z,77.17
2023-04-06T06:36:09.408Z,77.10
2023-04-06T06:37:07.156Z,77.65
2023-04-06T06:38:03.831Z,77.57
2023-04-06T06:39:01.670Z,77.89
2023-04-06T06:39:58.249Z,76.96
2023-04-06T06:40:54.917Z,76.59
2023-04-06T06:41:51.579Z,77.12
2023-04-06T06:42:48.213Z,77.68
2023-04-06T06:43:44.904Z,77.79
2023-04-06T06:44:41.559Z,76.59
2023-04-06T06:45:38.357Z,76.22
2023-04-06T06:46:34.996Z,75.29
2023-04-06T06:48:28.355Z,76.14
2023-04-06T06:49:25.002Z,76.44
2023-04-06T06:50:21.764Z,76.67
2023-04-06T06:51:18.440Z,76.61
2023-04-06T06:52:15.650Z,76.51
2023-04-06T06:53:12.782Z,75.61
2023-04-06T06:54:09.694Z,75.36
2023-04-06T06:55:06.823Z,75.29
2023-04-06T06:56:03.754Z,75.74
2023-04-06T06:57:01.426Z,76.25
2023-04-06T06:57:58.099Z,76.65
2023-04-06T06:58:54.773Z,76.70
2023-04-06T06:59:51.450Z,76.12
2023-04-06T07:00:48.134Z,75.79
2023-04-06T07:01:44.815Z,76.66
2023-04-06T07:02:41.742Z,77.67
2023-04-06T07:03:38.350Z,77.10
2023-04-06T07:04:35.091Z,76.96
2023-04-06T07:05:31.836Z,77.41
2023-04-06T07:06:28.513Z,77.39
2023-04-06T07:07:25.156Z,77.14
2023-04-06T07:08:23.074Z,77.18
2023-04-06T07:09:20.156Z,77.38
2023-04-06T07:10:16.863Z,77.44
2023-04-06T07:11:13.534Z,77.75
2023-04-06T07:12:10.340Z,77.37
2023-04-06T07:13:07.227Z,77.45
2023-04-06T07:14:03.912Z,77.97
2023-04-06T07:15:00.638Z,78.93
2023-04-06T07:15:57.251Z,79.08
2023-04-06T07:16:53.931Z,79.29
2023-04-06T07:17:50.795Z,79.37
2023-04-06T07:18:47.617Z,79.29
2023-04-06T07:19:44.413Z,79.51
2023-04-06T07:20:41.343Z,79.06
2023-04-06T07:21:38.085Z,78.85
2023-04-06T07:22:34.785Z,79.25
2023-04-06T07:23:31.388Z,78.78
2023-04-06T07:24:28.034Z,78.73
2023-04-06T07:25:26.068Z,78.19
2023-04-06T07:26:22.772Z,77.72
2023-04-06T07:27:19.921Z,76.81
2023-04-06T07:28:16.583Z,76.32
2023-04-06T07:29:13.803Z,77.05
2023-04-06T07:30:10.919Z,77.46
2023-04-06T07:31:07.631Z,77.75
2023-04-06T07:32:04.346Z,78.20
2023-04-06T07:33:01.452Z,78.30
2023-04-06T07:33:58.223Z,78.83
2023-04-06T07:34:54.834Z,78.67
2023-04-06T07:35:52.567Z,78.41
2023-04-06T07:36:49.292Z,78.18
2023-04-06T07:37:45.923Z,77.91
2023-04-06T07:38:42.578Z,78.33
2023-04-06T07:39:39.241Z,78.93
2023-04-06T07:40:35.945Z,79.12
2023-04-06T07:41:32.650Z,78.47
2023-04-06T07:42:29.319Z,78.23
2023-04-06T07:43:26.237Z,78.04
2023-04-06T07:44:22.925Z,78.69
2023-04-06T07:45:19.873Z,78.26
2023-04-06T07:46:16.652Z,77.79
2023-04-06T07:47:13.349Z,77.25
2023-04-06T07:48:11.002Z,76.04
2023-04-06T07:49:07.660Z,75.41
2023-04-06T07:50:04.755Z,75.73
2023-04-06T07:51:03.198Z,76.22
2023-04-06T07:51:59.810Z,76.10
2023-04-06T07:52:56.429Z,77.07
2023-04-06T07:53:53.217Z,76.98
2023-04-06T07:54:50.557Z,77.40
2023-04-06T07:55:47.378Z,76.24
2023-04-06T07:56:44.080Z,76.57
2023-04-06T07:57:40.789Z,76.07
2023-04-06T07:58:37.394Z,77.10
2023-04-06T07:59:34.123Z,76.71
2023-04-06T08:00:31.450Z,76.60
2023-04-06T08:01:29.223Z,75.82
2023-04-06T08:02:26.012Z,76.63
2023-04-06T08:03:28.654Z,76.57
2023-04-06T08:04:25.606Z,76.75
2023-04-06T08:05:22.368Z,76.16
2023-04-06T08:06:18.985Z,76.04
2023-04-06T08:07:15.621Z,75.40
2023-04-06T08:08:12.274Z,75.28
2023-04-06T08:09:09.066Z,75.57
2023-04-06T08:10:06.078Z,75.21
2023-04-06T08:11:03.758Z,75.07
2023-04-06T08:12:00.398Z,74.65
2023-04-06T08:12:57.025Z,74.75
2023-04-06T08:13:53.786Z,74.29
2023-04-06T08:14:50.504Z,75.05
2023-04-06T08:15:47.232Z,75.10
2023-04-06T08:16:44.011Z,75.10
2023-04-06T08:17:40.843Z,74.48
2023-04-06T08:18:37.575Z,74.04
2023-04-06T08:19:34.269Z,74.24
2023-04-06T08:20:30.930Z,74.55
2023-04-06T08:21:28.565Z,74.47
2023-04-06T08:22:25.216Z,74.15
2023-04-06T08:23:22.031Z,73.79
2023-04-06T08:24:18.693Z,73.20
2023-04-06T08:25:15.499Z,73.73
2023-04-06T08:26:12.193Z,74.40
2023-04-06T08:27:08.874Z,74.40
2023-04-06T08:28:05.804Z,73.71
2023-04-06T08:29:02.446Z,73.65
2023-04-06T08:29:59.185Z,73.56
2023-04-06T08:30:55.913Z,73.17
2023-04-06T08:31:52.502Z,73.92
2023-04-06T08:32:49.169Z,73.85
2023-04-06T08:33:45.986Z,73.80
2023-04-06T08:34:42.653Z,73.75
2023-04-06T08:35:39.327Z,72.80
2023-04-06T08:36:36.043Z,73.70
2023-04-06T08:37:32.741Z,73.40
2023-04-06T08:38:29.356Z,73.13
2023-04-06T08:39:28.186Z,72.49
2023-04-06T08:40:25.297Z,72.98
2023-04-06T08:41:22.349Z,73.00
2023-04-06T08:42:23.018Z,71.94
2023-04-06T08:43:23.548Z,71.20
2023-04-06T08:44:20.530Z,71.11
2023-04-06T08:45:18.849Z,71.07
2023-04-06T08:46:16.280Z,70.50
2023-04-06T08:47:13.798Z,70.94
2023-04-06T08:48:10.734Z,71.05
2023-04-06T08:49:08.948Z,70.54
2023-04-06T08:50:06.232Z,70.28
2023-04-06T08:51:03.613Z,70.05
2023-04-06T08:52:01.549Z,69.75
2023-04-06T08:52:58.190Z,69.87
2023-04-06T08:53:56.391Z,69.79
2023-04-06T08:54:53.022Z,70.17
2023-04-06T08:55:49.864Z,69.74
2023-04-06T08:56:47.660Z,70.44
2023-04-06T08:57:45.330Z,69.48
2023-04-06T08:58:42.746Z,69.63
2023-04-06T08:59:40.537Z,70.10
2023-04-06T09:00:40.561Z,69.37
2023-04-06T09:01:42.418Z,69.71
2023-04-06T09:02:46.405Z,69.54
2023-04-06T09:03:44.675Z,69.77
2023-04-06T09:04:41.848Z,69.40
2023-04-06T09:05:39.765Z,68.90
2023-04-06T09:06:37.947Z,69.65
2023-04-06T09:07:34.632Z,69.15
2023-04-06T09:08:31.480Z,70.02
2023-04-06T09:09:28.193Z,69.08
2023-04-06T09:10:28.267Z,70.09
2023-04-06T09:11:25.046Z,69.77
2023-04-06T09:12:29.002Z,68.63
2023-04-06T09:13:25.808Z,68.24
2023-04-06T09:14:38.991Z,67.84
2023-04-06T09:15:36.295Z,69.50
2023-04-06T09:16:41.522Z,68.49
2023-04-06T09:17:38.200Z,69.73
2023-04-06T09:18:35.249Z,68.13
2023-04-06T09:19:32.106Z,69.03
2023-04-06T09:20:31.502Z,67.69
2023-04-06T09:21:28.387Z,68.64
2023-04-06T09:22:29.384Z,68.96
2023-04-06T09:23:26.082Z,68.26
2023-04-06T09:24:27.224Z,68.72
2023-04-06T09:25:26.612Z,68.83
2023-04-06T09:26:23.854Z,68.94
2023-04-06T09:27:33.302Z,68.85
2023-04-06T09:28:30.084Z,68.22
2023-04-06T09:29:28.106Z,69.30
2023-04-06T09:30:26.017Z,69.54
2023-04-06T09:31:28.494Z,69.17
2023-04-06T09:32:25.065Z,69.48
2023-04-06T09:33:24.804Z,68.40
2023-04-06T09:34:23.871Z,68.70
2023-04-06T09:35:21.658Z,68.86
2023-04-06T09:36:18.564Z,68.83
2023-04-06T09:37:19.750Z,67.71
2023-04-06T09:38:16.468Z,67.07
2023-04-06T09:39:14.098Z,68.74
2023-04-06T09:40:11.246Z,69.64
2023-04-06T09:41:07.969Z,68.15
2023-04-06T09:42:04.609Z,67.12
2023-04-06T09:43:03.389Z,68.32
2023-04-06T09:44:11.026Z,68.94
2023-04-06T09:45:08.588Z,69.30
2023-04-06T09:46:05.697Z,67.83
2023-04-06T09:47:06.313Z,68.62
2023-04-06T09:48:04.934Z,69.51
2023-04-06T09:49:03.527Z,68.71
2023-04-06T09:50:01.398Z,69.08
2023-04-06T09:51:04.106Z,68.88
2023-04-06T09:52:03.285Z,68.50
2023-04-06T09:53:01.023Z,67.92
2023-04-06T09:54:02.384Z,68.44
2023-04-06T09:55:03.055Z,67.67
2023-04-06T09:56:03.931Z,66.85
2023-04-06T09:57:27.438Z,67.23
2023-04-06T09:58:27.445Z,67.40
2023-04-06T09:59:24.161Z,68.15
2023-04-06T10:00:23.485Z,66.38
2023-04-06T10:01:21.804Z,66.63
2023-04-06T10:02:49.195Z,66.29
2023-04-06T10:04:22.505Z,66.21
2023-04-06T10:05:31.275Z,66.47
2023-04-06T10:06:34.341Z,65.83
2023-04-06T10:07:32.389Z,65.91
2023-04-06T10:08:32.480Z,66.88
2023-04-06T10:09:36.656Z,67.78
2023-04-06T10:10:33.627Z,67.37
2023-04-06T10:11:30.665Z,65.19
2023-04-06T10:12:27.355Z,64.91
2023-04-06T10:13:25.946Z,66.16
2023-04-06T10:14:22.673Z,65.71
2023-04-06T10:15:21.913Z,65.40
2023-04-06T10:16:19.760Z,65.02
2023-04-06T10:17:16.504Z,64.44
2023-04-06T10:18:13.449Z,64.69
2023-04-06T10:19:26.004Z,65.29
2023-04-06T10:20:28.788Z,64.26
2023-04-06T10:21:28.527Z,64.35
2023-04-06T10:22:37.643Z,65.37
2023-04-06T10:23:38.027Z,63.50
2023-04-06T10:24:34.704Z,64.67
2023-04-06T10:25:32.936Z,64.11
2023-04-06T10:26:29.702Z,64.10
2023-04-06T10:27:30.736Z,64.55
2023-04-06T10:28:32.842Z,63.93
2023-04-06T10:29:29.742Z,63.21
2023-04-06T10:30:27.161Z,63.70
2023-04-06T10:31:28.737Z,62.51
2023-04-06T10:32:37.279Z,62.22
2023-04-06T10:33:34.348Z,60.94
2023-04-06T10:34:36.300Z,60.80
2023-04-06T10:35:41.734Z,62.58
2023-04-06T10:36:38.908Z,62.46
2023-04-06T10:38:01.465Z,64.27
2023-04-06T10:39:03.658Z,62.98
2023-04-06T10:40:00.365Z,62.18
2023-04-06T10:41:08.225Z,63.35
2023-04-06T10:42:07.878Z,65.07
2023-04-06T10:43:12.782Z,64.96
2023-04-06T10:44:18.845Z,64.79
2023-04-06T10:45:28.855Z,64.42
2023-04-06T10:46:31.542Z,63.23
2023-04-06T10:47:28.286Z,62.49
2023-04-06T10:48:25.368Z,61.41
2023-04-06T10:49:22.291Z,62.77
2023-04-06T10:50:19.198Z,63.09
2023-04-06T10:51:17.897Z,61.70
2023-04-06T10:52:14.650Z,61.68
2023-04-06T10:53:11.378Z,59.83
2023-04-06T10:54:08.806Z,60.02
2023-04-06T10:55:07.112Z,60.94
2023-04-06T10:56:05.125Z,61.08
2023-04-06T10:57:02.065Z,61.16
2023-04-06T10:57:58.702Z,60.45
2023-04-06T10:58:58.936Z,59.55
2023-04-06T10:59:55.680Z,59.16
2023-04-06T11:00:52.764Z,58.81
2023-04-06T11:01:49.926Z,60.63
2023-04-06T11:02:47.313Z,60.20
2023-04-06T11:03:48.809Z,61.01
2023-04-06T11:04:55.303Z,61.31
2023-04-06T11:05:52.615Z,60.91
2023-04-06T11:06:50.458Z,60.28
2023-04-06T11:07:47.143Z,60.64
2023-04-06T11:08:43.891Z,60.01
2023-04-06T11:09:40.678Z,60.56
2023-04-06T11:10:37.377Z,57.67
2023-04-06T11:11:34.049Z,59.82
2023-04-06T11:12:31.943Z,58.29
2023-04-06T11:13:41.936Z,57.60
2023-04-06T11:14:39.880Z,57.10
2023-04-06T11:15:38.222Z,56.18
2023-04-06T11:16:36.237Z,57.08
2023-04-06T11:17:35.003Z,57.09
2023-04-06T11:18:32.762Z,57.00
2023-04-06T11:19:29.551Z,55.22
2023-04-06T11:20:26.290Z,53.16
2023-04-06T11:21:47.717Z,54.42
2023-04-06T11:22:52.770Z,52.60
2023-04-06T11:23:49.387Z,52.19
2023-04-06T11:24:46.161Z,53.97
2023-04-06T11:25:52.129Z,53.12
2023-04-06T11:26:50.044Z,52.69
2023-04-06T11:27:48.619Z,52.68
2023-04-06T11:28:45.503Z,53.86
2023-04-06T11:29:42.255Z,55.29
2023-04-06T11:30:39.297Z,54.28
2023-04-06T11:31:43.816Z,55.02
2023-04-06T11:32:45.271Z,53.56
2023-04-06T11:33:42.056Z,53.69
2023-04-06T11:34:40.645Z,55.08
2023-04-06T11:35:38.477Z,53.90
2023-04-06T11:36:36.928Z,54.38
2023-04-06T11:37:34.038Z,55.50
2023-04-06T11:38:31.894Z,54.77
2023-04-06T11:39:29.918Z,55.27
2023-04-06T11:40:28.966Z,54.33
2023-04-06T11:41:27.650Z,54.48
2023-04-06T11:42:29.254Z,55.41
2023-04-06T11:43:30.393Z,54.26
2023-04-06T11:44:41.271Z,52.99
2023-04-06T11:45:44.078Z,52.62
2023-04-06T11:46:41.007Z,53.15
2023-04-06T11:47:43.198Z,53.03
2023-04-06T11:48:46.465Z,51.46
2023-04-06T11:49:43.934Z,53.70
2023-04-06T11:50:40.770Z,52.49
2023-04-06T11:51:38.350Z,53.44
2023-04-06T11:52:35.248Z,52.71
2023-04-06T11:53:32.053Z,52.46
2023-04-06T11:54:36.262Z,52.27
2023-04-06T11:55:39.177Z,53.53
2023-04-06T11:56:35.892Z,53.13
2023-04-06T11:57:32.560Z,54.35
2023-04-06T11:58:30.886Z,53.63
2023-04-06T11:59:28.299Z,52.74
2023-04-06T12:00:25.041Z,53.18
2023-04-06T12:01:21.660Z,52.96
2023-04-06T12:02:19.049Z,53.44
2023-04-06T12:03:16.038Z,54.25
2023-04-06T12:04:13.024Z,54.14
2023-04-06T12:05:10.435Z,53.46
2023-04-06T12:06:07.136Z,54.23
2023-04-06T12:07:04.065Z,53.61
2023-04-06T12:08:02.710Z,53.05
2023-04-06T12:09:00.360Z,54.12
2023-04-06T12:09:57.212Z,53.83
2023-04-06T12:10:53.878Z,54.63
2023-04-06T12:11:50.928Z,55.28
2023-04-06T12:12:47.873Z,52.70
2023-04-06T12:13:44.520Z,51.91
2023-04-06T12:14:41.374Z,53.29
2023-04-06T12:15:38.274Z,53.63
2023-04-06T12:16:35.986Z,53.45
2023-04-06T12:17:32.796Z,50.50
2023-04-06T12:18:31.002Z,51.90
2023-04-06T12:19:27.909Z,52.99
2023-04-06T12:20:26.516Z,54.58
2023-04-06T12:21:24.265Z,55.49
2023-04-06T12:22:20.978Z,55.14
2023-04-06T12:23:17.655Z,55.73
2023-04-06T12:24:14.297Z,53.21